createdAt,value
2023-01-22T00:02:37.964Z,101580.58
2023-01-22T00:07:44.458Z,101579.98
2023-01-22T00:12:50.539Z,101579.23
2023-01-22T00:17:56.903Z,101578.69
2023-01-22T00:23:03.678Z,101582.30
2023-01-22T00:28:10.155Z,101584.34
2023-01-22T00:33:16.352Z,101581.27
2023-01-22T00:38:22.738Z,101583.95
2023-01-22T00:43:29.285Z,101589.88
2023-01-22T00:48:35.558Z,101594.86
2023-01-22T00:53:42.760Z,101599.19
2023-01-22T00:58:49.387Z,101599.96
2023-01-22T01:03:55.461Z,101602.91
2023-01-22T01:09:01.960Z,101607.77
2023-01-22T01:14:08.331Z,101611.76
2023-01-22T01:19:14.185Z,101610.05
2023-01-22T01:24:20.284Z,101616.79
2023-01-22T01:29:26.966Z,101621.41
2023-01-22T01:34:33.309Z,101622.67
2023-01-22T01:39:39.459Z,101624.34
2023-01-22T01:44:45.550Z,101627.73
2023-01-22T01:49:53.570Z,101629.17
2023-01-22T01:55:00.280Z,101632.17
2023-01-22T02:00:10.602Z,101636.19
2023-01-22T02:05:21.361Z,101645.65
2023-01-22T02:10:27.557Z,101650.14
2023-01-22T02:15:36.139Z,101651.69
2023-01-22T02:20:54.220Z,101662.48
2023-01-22T02:26:00.620Z,101665.55
2023-01-22T02:31:06.825Z,101661.11
2023-01-22T02:36:13.426Z,101656.62
2023-01-22T02:41:19.786Z,101657.50
2023-01-22T02:46:30.390Z,101658.83
2023-01-22T02:51:36.420Z,101671.21
2023-01-22T02:56:42.860Z,101679.73
2023-01-22T03:01:49.307Z,101686.00
2023-01-22T03:06:55.306Z,101685.61
2023-01-22T03:12:02.256Z,101684.27
2023-01-22T03:17:29.704Z,101686.27
2023-01-22T03:22:38.480Z,101685.73
2023-01-22T03:28:04.176Z,101695.85
2023-01-22T03:33:13.214Z,101702.22
2023-01-22T03:38:19.653Z,101712.68
2023-01-22T03:43:25.789Z,101719.60
2023-01-22T03:48:32.229Z,101719.66
2023-01-22T03:53:38.865Z,101721.62
2023-01-22T03:58:45.111Z,101723.44
2023-01-22T04:03:54.059Z,101722.04
2023-01-22T04:09:02.562Z,101731.33
2023-01-22T04:14:16.718Z,101737.88
2023-01-22T04:19:32.057Z,101741.90
2023-01-22T04:24:58.775Z,101749.67
2023-01-22T04:30:06.709Z,101758.33
2023-01-22T04:35:13.336Z,101755.35
2023-01-22T04:40:28.103Z,101750.87
2023-01-22T04:45:34.528Z,101751.65
2023-01-22T04:50:40.613Z,101754.91
2023-01-22T04:55:46.887Z,101761.55
2023-01-22T05:00:55.248Z,101769.25
2023-01-22T05:06:06.067Z,101772.48
2023-01-22T05:11:14.332Z,101773.59
2023-01-22T05:16:31.101Z,101777.27
2023-01-22T05:21:36.905Z,101779.37
2023-01-22T05:26:44.843Z,101782.29
2023-01-22T05:31:59.381Z,101789.64
2023-01-22T05:37:20.989Z,101786.04
2023-01-22T05:42:27.575Z,101783.80
2023-01-22T05:47:33.602Z,101787.83
2023-01-22T05:52:53.660Z,101792.05
2023-01-22T05:58:00.365Z,101794.70
2023-01-22T06:03:06.841Z,101798.23
2023-01-22T06:08:21.251Z,101807.01
2023-01-22T06:13:30.349Z,101816.98
2023-01-22T06:18:39.041Z,101822.67
2023-01-22T06:23:45.549Z,101827.14
2023-01-22T06:28:55.607Z,101831.17
2023-01-22T06:34:03.663Z,101839.70
2023-01-22T06:39:10.829Z,101840.60
2023-01-22T06:44:37.188Z,101845.02
2023-01-22T06:49:43.416Z,101850.95
2023-01-22T06:54:51.105Z,101855.45
2023-01-22T06:59:57.612Z,101860.09
2023-01-22T07:05:03.776Z,101870.29
2023-01-22T07:10:11.026Z,101878.93
2023-01-22T07:15:16.874Z,101882.20
2023-01-22T07:20:24.514Z,101888.77
2023-01-22T07:25:30.223Z,101894.93
2023-01-22T07:30:36.241Z,101900.70
2023-01-22T07:35:42.959Z,101907.11
2023-01-22T07:40:49.437Z,101918.14
2023-01-22T07:45:58.010Z,101923.04
2023-01-22T07:51:06.325Z,101925.48
2023-01-22T07:56:13.898Z,101927.35
2023-01-22T08:01:20.456Z,101932.13
2023-01-22T08:06:26.222Z,101939.28
2023-01-22T08:11:32.438Z,101946.23
2023-01-22T08:16:39.152Z,101946.58
2023-01-22T08:21:45.869Z,101945.56
2023-01-22T08:26:51.832Z,101946.65
2023-01-22T08:31:57.796Z,101947.66
2023-01-22T08:37:04.117Z,101950.78
2023-01-22T08:42:10.541Z,101959.04
2023-01-22T08:47:18.696Z,101968.02
2023-01-22T08:52:25.206Z,101973.10
2023-01-22T08:57:31.916Z,101971.62
2023-01-22T09:02:38.979Z,101970.22
2023-01-22T09:07:45.508Z,101971.41
2023-01-22T09:12:52.233Z,101973.86
2023-01-22T09:18:01.292Z,101978.33
2023-01-22T09:23:15.708Z,101988.90
2023-01-22T09:28:40.981Z,101998.67
2023-01-22T09:33:47.107Z,102003.38
2023-01-22T09:38:52.902Z,102006.84
2023-01-22T09:44:04.778Z,102007.86
2023-01-22T09:49:16.502Z,102013.60
2023-01-22T09:54:23.594Z,102008.50
2023-01-22T09:59:35.829Z,102006.69
2023-01-22T10:04:44.944Z,102005.11
2023-01-22T10:09:54.711Z,102010.45
2023-01-22T10:15:00.580Z,102014.11
2023-01-22T10:20:12.671Z,102014.78
2023-01-22T10:25:19.032Z,102010.06
2023-01-22T10:30:27.051Z,102008.31
2023-01-22T10:35:42.420Z,102004.09
2023-01-22T10:40:54.718Z,102001.90
2023-01-22T10:46:06.013Z,102001.86
2023-01-22T10:51:16.837Z,102003.53
2023-01-22T10:56:32.364Z,102003.02
2023-01-22T11:01:39.920Z,102000.98
2023-01-22T11:06:50.936Z,101999.48
2023-01-22T11:12:04.351Z,101992.83
2023-01-22T11:17:19.473Z,102000.54
2023-01-22T11:22:33.449Z,102004.33
2023-01-22T11:27:51.667Z,102003.16
2023-01-22T11:33:07.233Z,102000.36
2023-01-22T11:38:25.030Z,101995.77
2023-01-22T11:43:55.670Z,101986.65
2023-01-22T11:49:13.817Z,101989.70
2023-01-22T11:54:33.029Z,101986.67
2023-01-22T11:59:51.753Z,101982.00
2023-01-22T12:05:21.755Z,101982.58
2023-01-22T12:10:54.120Z,101984.37
2023-01-22T12:16:15.432Z,101983.30
2023-01-22T12:21:35.260Z,101982.31
2023-01-22T12:26:48.022Z,101981.54
2023-01-22T12:31:59.288Z,101987.83
2023-01-22T12:37:07.995Z,101989.55
2023-01-22T12:42:24.798Z,101989.93
2023-01-22T12:47:40.670Z,101990.05
2023-01-22T12:52:57.431Z,101993.70
2023-01-22T12:58:07.653Z,101991.49
2023-01-22T13:03:32.427Z,101994.23
2023-01-22T13:08:42.305Z,101998.31
2023-01-22T13:13:53.066Z,101998.89
2023-01-22T13:19:00.973Z,102009.15
2023-01-22T13:24:15.145Z,102019.45
2023-01-22T13:29:26.130Z,102022.72
2023-01-22T13:34:33.542Z,102022.20
2023-01-22T13:39:39.900Z,102025.77
2023-01-22T13:44:49.118Z,102026.67
2023-01-22T13:49:55.276Z,102025.30
2023-01-22T13:55:07.711Z,102024.35
2023-01-22T14:00:26.940Z,102025.36
2023-01-22T14:05:35.273Z,102029.33
2023-01-22T14:10:42.096Z,102029.18
2023-01-22T14:15:57.396Z,102029.19
2023-01-22T14:21:04.095Z,102042.66
2023-01-22T14:26:10.733Z,102048.06
2023-01-22T14:31:16.620Z,102055.71
2023-01-22T14:36:22.324Z,102060.17
2023-01-22T14:41:28.311Z,102061.80
2023-01-22T14:46:34.023Z,102064.98
2023-01-22T14:51:39.888Z,102068.88
2023-01-22T14:56:45.668Z,102071.95
2023-01-22T15:01:51.660Z,102072.24
2023-01-22T15:06:57.503Z,102076.48
2023-01-22T15:12:03.859Z,102081.63
2023-01-22T15:17:09.616Z,102089.22
2023-01-22T15:22:15.695Z,102101.54
2023-01-22T15:27:22.500Z,102113.26
2023-01-22T15:32:28.631Z,102117.59
2023-01-22T15:37:34.612Z,102116.67
2023-01-22T15:42:40.373Z,102116.16
2023-01-22T15:47:46.096Z,102123.09
2023-01-22T15:52:57.714Z,102130.44
2023-01-22T15:58:03.630Z,102132.21
2023-01-22T16:03:09.483Z,102129.27
2023-01-22T16:08:15.787Z,102130.65
2023-01-22T16:13:21.959Z,102140.67
2023-01-22T16:18:27.800Z,102142.78
2023-01-22T16:23:35.201Z,102150.89
2023-01-22T16:28:41.532Z,102156.88
2023-01-22T16:33:51.781Z,102164.52
2023-01-22T16:38:57.759Z,102163.95
2023-01-22T16:44:09.752Z,102165.41
2023-01-22T16:49:17.852Z,102163.13
2023-01-22T16:54:30.227Z,102161.83
2023-01-22T16:59:37.468Z,102171.59
2023-01-22T17:04:43.317Z,102177.70
2023-01-22T17:09:50.198Z,102179.45
2023-01-22T17:14:56.357Z,102183.45
2023-01-22T17:20:02.039Z,102186.35
2023-01-22T17:25:09.526Z,102196.16
2023-01-22T17:30:16.857Z,102202.39
2023-01-22T17:35:22.756Z,102203.13
2023-01-22T17:40:29.453Z,102207.73
2023-01-22T17:45:38.453Z,102212.73
2023-01-22T17:50:44.608Z,102218.00
2023-01-22T17:55:50.615Z,102220.00
2023-01-22T18:01:00.872Z,102219.70
2023-01-22T18:06:08.327Z,102222.50
2023-01-22T18:11:15.711Z,102228.05
2023-01-22T18:16:21.768Z,102231.93
2023-01-22T18:21:28.999Z,102233.06
2023-01-22T18:26:35.818Z,102235.28
2023-01-22T18:31:42.117Z,102236.58
2023-01-22T18:36:48.139Z,102242.52
2023-01-22T18:41:54.255Z,102245.73
2023-01-22T18:47:02.059Z,102246.59
2023-01-22T18:52:07.866Z,102248.49
2023-01-22T18:57:13.435Z,102246.76
2023-01-22T19:02:21.801Z,102248.51
2023-01-22T19:07:27.749Z,102250.19
2023-01-22T19:12:34.030Z,102251.16
2023-01-22T19:17:40.069Z,102255.64
2023-01-22T19:22:46.030Z,102251.15
2023-01-22T19:27:51.763Z,102251.38
2023-01-22T19:32:58.177Z,102248.48
2023-01-22T19:38:03.958Z,102249.84
2023-01-22T19:43:09.886Z,102257.39
2023-01-22T19:48:15.709Z,102264.20
2023-01-22T19:53:21.559Z,102271.21
2023-01-22T19:58:28.494Z,102273.81
2023-01-22T20:03:34.501Z,102281.48
2023-01-22T20:08:40.671Z,102288.44
2023-01-22T20:13:47.568Z,102288.42
2023-01-22T20:18:54.183Z,102288.88
2023-01-22T20:23:59.982Z,102289.47
2023-01-22T20:29:06.794Z,102289.27
2023-01-22T20:34:12.672Z,102288.96
2023-01-22T20:39:19.684Z,102289.20
2023-01-22T20:44:25.932Z,102290.86
2023-01-22T20:49:33.543Z,102295.15
2023-01-22T20:54:50.066Z,102297.92
2023-01-22T21:00:08.620Z,102304.02
2023-01-22T21:05:15.058Z,102308.09
2023-01-22T21:10:21.616Z,102313.54
2023-01-22T21:15:27.745Z,102314.66
2023-01-22T21:20:34.338Z,102323.34
2023-01-22T21:25:41.128Z,102327.50
2023-01-22T21:30:46.922Z,102333.89
2023-01-22T21:35:52.711Z,102333.12
2023-01-22T21:41:07.309Z,102328.95
2023-01-22T21:46:25.478Z,102327.02
2023-01-22T21:51:33.436Z,102323.34
2023-01-22T21:56:40.313Z,102319.83
2023-01-22T22:01:47.381Z,102323.71
2023-01-22T22:06:57.704Z,102326.77
2023-01-22T22:12:05.497Z,102333.98
2023-01-22T22:17:11.378Z,102336.59
2023-01-22T22:22:17.162Z,102330.54
2023-01-22T22:27:22.897Z,102335.00
2023-01-22T22:32:29.202Z,102334.91
2023-01-22T22:37:35.229Z,102335.92
2023-01-22T22:42:41.095Z,102339.92
2023-01-22T22:47:46.824Z,102339.55
2023-01-22T22:52:52.784Z,102338.70
2023-01-22T22:57:58.836Z,102342.52
2023-01-22T23:03:04.920Z,102349.91
2023-01-22T23:08:11.055Z,102358.67
2023-01-22T23:13:16.783Z,102365.84
2023-01-22T23:18:26.868Z,102374.75
2023-01-22T23:23:33.341Z,102379.41
2023-01-22T23:28:39.249Z,102378.88
2023-01-22T23:33:45.520Z,102383.56
2023-01-22T23:38:51.956Z,102396.80
2023-01-22T23:43:57.776Z,102399.66
2023-01-22T23:49:04.921Z,102399.41
2023-01-22T23:54:11.156Z,102395.00
2023-01-22T23:59:16.976Z,102395.34
